createdAt,value
2023-05-06T00:00:06.894Z,993.37
2023-05-06T00:00:17.383Z,993.37
2023-05-06T00:00:27.944Z,993.38
2023-05-06T00:00:38.404Z,993.37
2023-05-06T00:00:48.930Z,993.37
2023-05-06T00:00:59.444Z,993.38
2023-05-06T00:01:10.037Z,993.38
2023-05-06T00:01:20.484Z,993.39
2023-05-06T00:01:30.977Z,993.39
2023-05-06T00:01:41.494Z,993.39
2023-05-06T00:01:52.008Z,993.39
2023-05-06T00:02:02.514Z,993.39
2023-05-06T00:02:13.030Z,993.40
2023-05-06T00:02:23.608Z,993.40
2023-05-06T00:02:34.164Z,993.40
2023-05-06T00:02:44.640Z,993.40
2023-05-06T00:02:55.236Z,993.40
2023-05-06T00:03:05.812Z,993.40
2023-05-06T00:03:16.210Z,993.40
2023-05-06T00:03:26.971Z,993.41
2023-05-06T00:03:37.288Z,993.41
2023-05-06T00:03:48.121Z,993.40
2023-05-06T00:03:58.307Z,993.41
2023-05-06T00:04:08.736Z,993.41
2023-05-06T00:04:19.234Z,993.41
2023-05-06T00:04:29.742Z,993.41
2023-05-06T00:04:40.321Z,993.41
2023-05-06T00:04:50.758Z,993.41
2023-05-06T00:05:01.345Z,993.41
2023-05-06T00:05:12.310Z,993.42
2023-05-06T00:05:22.407Z,993.42
2023-05-06T00:05:32.905Z,993.42
2023-05-06T00:05:43.351Z,993.42
2023-05-06T00:05:53.851Z,993.42
2023-05-06T00:06:04.387Z,993.42
2023-05-06T00:06:14.883Z,993.42
2023-05-06T00:06:25.398Z,993.42
2023-05-06T00:06:35.913Z,993.42
2023-05-06T00:06:46.441Z,993.42
2023-05-06T00:06:56.959Z,993.42
2023-05-06T00:07:07.461Z,993.42
2023-05-06T00:07:18.013Z,993.42
2023-05-06T00:07:28.504Z,993.42
2023-05-06T00:07:39.021Z,993.42
2023-05-06T00:07:49.518Z,993.42
2023-05-06T00:08:00.046Z,993.41
2023-05-06T00:08:10.548Z,993.41
2023-05-06T00:08:21.065Z,993.41
2023-05-06T00:08:31.579Z,993.41
2023-05-06T00:08:42.161Z,993.41
2023-05-06T00:08:52.617Z,993.41
2023-05-06T00:09:03.127Z,993.41
2023-05-06T00:09:13.655Z,993.41
2023-05-06T00:09:24.165Z,993.40
2023-05-06T00:09:34.683Z,993.40
2023-05-06T00:09:45.184Z,993.40
2023-05-06T00:09:55.700Z,993.40
2023-05-06T00:10:06.213Z,993.40
2023-05-06T00:10:16.749Z,993.40
2023-05-06T00:10:27.286Z,993.40
2023-05-06T00:10:37.851Z,993.40
2023-05-06T00:10:48.273Z,993.39
2023-05-06T00:10:58.797Z,993.39
2023-05-06T00:11:09.352Z,993.39
2023-05-06T00:11:19.825Z,993.38
2023-05-06T00:11:30.341Z,993.37
2023-05-06T00:11:40.858Z,993.37
2023-05-06T00:11:51.378Z,993.37
2023-05-06T00:12:01.891Z,993.37
2023-05-06T00:12:12.418Z,993.37
2023-05-06T00:12:22.945Z,993.36
2023-05-06T00:12:33.461Z,993.36
2023-05-06T00:12:43.990Z,993.36
2023-05-06T00:12:54.561Z,993.36
2023-05-06T00:13:05.027Z,993.35
2023-05-06T00:13:15.600Z,993.35
2023-05-06T00:13:26.046Z,993.35
2023-05-06T00:13:36.518Z,993.35
2023-05-06T00:13:47.055Z,993.35
2023-05-06T00:13:57.547Z,993.34
2023-05-06T00:14:08.076Z,993.34
2023-05-06T00:14:18.633Z,993.34
2023-05-06T00:14:29.125Z,993.34
2023-05-06T00:14:39.607Z,993.34
2023-05-06T00:14:50.141Z,993.34
2023-05-06T00:15:00.644Z,993.34
2023-05-06T00:15:11.490Z,993.35
2023-05-06T00:15:21.704Z,993.35
2023-05-06T00:15:32.411Z,993.35
2023-05-06T00:15:42.696Z,993.35
2023-05-06T00:15:53.223Z,993.34
2023-05-06T00:16:03.773Z,993.34
2023-05-06T00:16:14.303Z,993.34
2023-05-06T00:16:24.792Z,993.35
2023-05-06T00:16:35.383Z,993.34
2023-05-06T00:16:45.866Z,993.34
2023-05-06T00:16:56.306Z,993.34
2023-05-06T00:17:06.822Z,993.34
2023-05-06T00:17:17.339Z,993.34
2023-05-06T00:17:27.911Z,993.34
2023-05-06T00:17:38.391Z,993.34
2023-05-06T00:17:48.917Z,993.34
2023-05-06T00:17:59.438Z,993.33
2023-05-06T00:18:10.038Z,993.34
2023-05-06T00:18:20.434Z,993.33
2023-05-06T00:18:30.967Z,993.33
2023-05-06T00:18:41.469Z,993.33
2023-05-06T00:18:52.258Z,993.33
2023-05-06T00:19:02.498Z,993.32
2023-05-06T00:19:13.000Z,993.32
2023-05-06T00:19:23.517Z,993.32
2023-05-06T00:19:34.032Z,993.32
2023-05-06T00:19:44.564Z,993.32
2023-05-06T00:19:55.063Z,993.32
2023-05-06T00:20:05.611Z,993.32
2023-05-06T00:20:16.106Z,993.31
2023-05-06T00:20:26.624Z,993.31
2023-05-06T00:20:37.138Z,993.31
2023-05-06T00:20:47.638Z,993.31
2023-05-06T00:20:58.143Z,993.31
2023-05-06T00:21:08.698Z,993.30
2023-05-06T00:21:19.170Z,993.30
2023-05-06T00:21:29.686Z,993.30
2023-05-06T00:21:40.239Z,993.30
2023-05-06T00:21:50.728Z,993.30
2023-05-06T00:22:01.240Z,993.30
2023-05-06T00:22:11.775Z,993.30
2023-05-06T00:22:22.276Z,993.30
2023-05-06T00:22:32.791Z,993.29
2023-05-06T00:22:43.340Z,993.29
2023-05-06T00:22:53.820Z,993.29
2023-05-06T00:23:04.342Z,993.29
2023-05-06T00:23:14.865Z,993.29
2023-05-06T00:23:25.368Z,993.28
2023-05-06T00:23:35.894Z,993.28
2023-05-06T00:23:46.403Z,993.28
2023-05-06T00:23:56.953Z,993.28
2023-05-06T00:24:07.431Z,993.28
2023-05-06T00:24:17.942Z,993.27
2023-05-06T00:24:28.467Z,993.28
2023-05-06T00:24:38.984Z,993.27
2023-05-06T00:24:49.508Z,993.27
2023-05-06T00:25:00.015Z,993.27
2023-05-06T00:25:10.659Z,993.27
2023-05-06T00:25:21.038Z,993.27
2023-05-06T00:25:31.544Z,993.27
2023-05-06T00:25:42.073Z,993.28
2023-05-06T00:25:52.589Z,993.28
2023-05-06T00:26:03.098Z,993.27
2023-05-06T00:26:13.620Z,993.28
2023-05-06T00:26:24.122Z,993.28
2023-05-06T00:26:34.645Z,993.28
2023-05-06T00:26:45.152Z,993.28
2023-05-06T00:26:55.697Z,993.28
2023-05-06T00:27:06.184Z,993.28
2023-05-06T00:27:16.693Z,993.28
2023-05-06T00:27:27.231Z,993.28
2023-05-06T00:27:37.810Z,993.28
2023-05-06T00:27:48.255Z,993.28
2023-05-06T00:27:58.765Z,993.28
2023-05-06T00:28:09.283Z,993.28
2023-05-06T00:28:19.792Z,993.28
2023-05-06T00:28:30.315Z,993.29
2023-05-06T00:28:40.847Z,993.28
2023-05-06T00:28:51.336Z,993.28
2023-05-06T00:29:01.938Z,993.28
2023-05-06T00:29:12.378Z,993.28
2023-05-06T00:29:22.880Z,993.28
2023-05-06T00:29:33.404Z,993.28
2023-05-06T00:29:43.913Z,993.29
2023-05-06T00:29:54.430Z,993.28
2023-05-06T00:30:04.946Z,993.29
2023-05-06T00:30:15.496Z,993.29
2023-05-06T00:30:25.970Z,993.29
2023-05-06T00:30:36.497Z,993.29
2023-05-06T00:30:47.004Z,993.29
2023-05-06T00:30:57.523Z,993.30
2023-05-06T00:31:08.037Z,993.30
2023-05-06T00:31:18.570Z,993.30
2023-05-06T00:31:29.089Z,993.30
2023-05-06T00:31:39.628Z,993.30
2023-05-06T00:31:50.149Z,993.30
2023-05-06T00:32:00.750Z,993.30
2023-05-06T00:32:11.259Z,993.30
2023-05-06T00:32:21.644Z,993.30
2023-05-06T00:32:32.198Z,993.30
2023-05-06T00:32:42.736Z,993.30
2023-05-06T00:32:53.241Z,993.30
2023-05-06T00:33:03.742Z,993.30
2023-05-06T00:33:14.254Z,993.31
2023-05-06T00:33:24.751Z,993.31
2023-05-06T00:33:35.267Z,993.31
2023-05-06T00:33:45.789Z,993.31
2023-05-06T00:33:56.368Z,993.31
2023-05-06T00:34:06.805Z,993.31
2023-05-06T00:34:17.728Z,993.30
2023-05-06T00:34:27.864Z,993.30
2023-05-06T00:34:38.356Z,993.30
2023-05-06T00:34:48.873Z,993.30
2023-05-06T00:34:59.382Z,993.30
2023-05-06T00:35:10.283Z,993.29
2023-05-06T00:35:20.414Z,993.29
2023-05-06T00:35:30.935Z,993.29
2023-05-06T00:35:41.451Z,993.29
2023-05-06T00:35:51.975Z,993.29
2023-05-06T00:36:02.478Z,993.29
2023-05-06T00:36:12.995Z,993.29
2023-05-06T00:36:23.503Z,993.29
2023-05-06T00:36:34.037Z,993.28
2023-05-06T00:36:44.548Z,993.28
2023-05-06T00:36:55.059Z,993.28
2023-05-06T00:37:05.628Z,993.28
2023-05-06T00:37:16.124Z,993.28
2023-05-06T00:37:26.608Z,993.27
2023-05-06T00:37:37.130Z,993.27
2023-05-06T00:37:47.661Z,993.27
2023-05-06T00:37:58.154Z,993.27
2023-05-06T00:38:08.659Z,993.28
2023-05-06T00:38:19.210Z,993.28
2023-05-06T00:38:29.688Z,993.28
2023-05-06T00:38:40.220Z,993.29
2023-05-06T00:38:50.746Z,993.29
2023-05-06T00:39:01.258Z,993.29
2023-05-06T00:39:11.754Z,993.29
2023-05-06T00:39:22.289Z,993.29
2023-05-06T00:39:32.795Z,993.30
2023-05-06T00:39:43.319Z,993.30
2023-05-06T00:39:53.830Z,993.30
2023-05-06T00:40:04.344Z,993.30
2023-05-06T00:40:14.848Z,993.31
2023-05-06T00:40:25.366Z,993.31
2023-05-06T00:40:35.894Z,993.31
2023-05-06T00:40:46.385Z,993.31
2023-05-06T00:40:56.925Z,993.32
2023-05-06T00:41:07.447Z,993.32
2023-05-06T00:41:17.947Z,993.31
2023-05-06T00:41:28.452Z,993.31
2023-05-06T00:41:38.979Z,993.31
2023-05-06T00:41:49.487Z,993.31
2023-05-06T00:42:00.004Z,993.31
2023-05-06T00:42:10.511Z,993.31
2023-05-06T00:42:21.033Z,993.31
2023-05-06T00:42:31.559Z,993.31
2023-05-06T00:42:42.065Z,993.31
2023-05-06T00:42:52.596Z,993.31
2023-05-06T00:43:03.101Z,993.31
2023-05-06T00:43:13.621Z,993.31
2023-05-06T00:43:24.123Z,993.31
2023-05-06T00:43:34.627Z,993.31
2023-05-06T00:43:45.154Z,993.31
2023-05-06T00:43:55.654Z,993.31
2023-05-06T00:44:06.179Z,993.32
2023-05-06T00:44:16.684Z,993.32
2023-05-06T00:44:27.206Z,993.31
2023-05-06T00:44:37.740Z,993.32
2023-05-06T00:44:48.244Z,993.32
2023-05-06T00:44:58.753Z,993.32
2023-05-06T00:45:09.503Z,993.33
2023-05-06T00:45:19.789Z,993.33
2023-05-06T00:45:30.377Z,993.33
2023-05-06T00:45:40.858Z,993.33
2023-05-06T00:45:51.361Z,993.34
2023-05-06T00:46:01.892Z,993.34
2023-05-06T00:46:12.424Z,993.34
2023-05-06T00:46:23.034Z,993.34
2023-05-06T00:46:33.392Z,993.34
2023-05-06T00:46:43.903Z,993.35
2023-05-06T00:46:54.422Z,993.35
2023-05-06T00:47:05.704Z,993.35
2023-05-06T00:47:15.441Z,993.35
2023-05-06T00:47:25.962Z,993.35
2023-05-06T00:47:36.501Z,993.35
2023-05-06T00:47:47.045Z,993.35
2023-05-06T00:47:57.595Z,993.35
2023-05-06T00:48:08.348Z,993.34
2023-05-06T00:48:18.677Z,993.34
2023-05-06T00:48:29.059Z,993.34
2023-05-06T00:48:39.594Z,993.34
2023-05-06T00:48:50.091Z,993.33
2023-05-06T00:49:00.634Z,993.33
2023-05-06T00:49:11.128Z,993.33
2023-05-06T00:49:21.633Z,993.33
2023-05-06T00:49:32.153Z,993.32
2023-05-06T00:49:42.666Z,993.32
2023-05-06T00:49:53.291Z,993.31
2023-05-06T00:50:03.705Z,993.31
2023-05-06T00:50:14.214Z,993.31
2023-05-06T00:50:24.724Z,993.30
2023-05-06T00:50:35.246Z,993.30
2023-05-06T00:50:45.773Z,993.29
2023-05-06T00:50:56.276Z,993.29
2023-05-06T00:51:06.791Z,993.29
2023-05-06T00:51:17.300Z,993.28
2023-05-06T00:51:27.815Z,993.28
2023-05-06T00:51:38.324Z,993.27
2023-05-06T00:51:48.882Z,993.27
2023-05-06T00:51:59.359Z,993.27
2023-05-06T00:52:09.881Z,993.27
2023-05-06T00:52:20.387Z,993.27
2023-05-06T00:52:30.931Z,993.26
2023-05-06T00:52:41.425Z,993.26
2023-05-06T00:52:51.950Z,993.26
2023-05-06T00:53:02.463Z,993.26
2023-05-06T00:53:12.974Z,993.26
2023-05-06T00:53:23.496Z,993.26
2023-05-06T00:53:33.994Z,993.26
2023-05-06T00:53:44.512Z,993.26
2023-05-06T00:53:55.034Z,993.26
2023-05-06T00:54:05.564Z,993.26
2023-05-06T00:54:16.068Z,993.26
2023-05-06T00:54:26.582Z,993.26
2023-05-06T00:54:37.122Z,993.26
2023-05-06T00:54:47.649Z,993.27
2023-05-06T00:54:58.138Z,993.27
2023-05-06T00:55:08.807Z,993.27
2023-05-06T00:55:19.158Z,993.27
2023-05-06T00:55:29.679Z,993.28
2023-05-06T00:55:40.188Z,993.28
2023-05-06T00:55:50.698Z,993.28
2023-05-06T00:56:01.220Z,993.29
2023-05-06T00:56:11.767Z,993.29
2023-05-06T00:56:22.258Z,993.29
2023-05-06T00:56:32.776Z,993.29
2023-05-06T00:56:43.311Z,993.30
2023-05-06T00:56:53.795Z,993.30
2023-05-06T00:57:04.319Z,993.30
2023-05-06T00:57:14.829Z,993.30
2023-05-06T00:57:25.357Z,993.31
2023-05-06T00:57:35.861Z,993.31
2023-05-06T00:57:46.377Z,993.30
2023-05-06T00:57:56.882Z,993.31
2023-05-06T00:58:07.409Z,993.30
2023-05-06T00:58:17.920Z,993.31
2023-05-06T00:58:28.446Z,993.30
2023-05-06T00:58:38.950Z,993.30
2023-05-06T00:58:49.477Z,993.30
2023-05-06T00:59:00.011Z,993.30
2023-05-06T00:59:10.500Z,993.30
2023-05-06T00:59:21.009Z,993.30
2023-05-06T00:59:31.532Z,993.29
2023-05-06T00:59:42.044Z,993.29
2023-05-06T00:59:52.557Z,993.29
2023-05-06T01:00:03.080Z,993.29
2023-05-06T01:00:13.597Z,993.29
2023-05-06T01:00:24.110Z,993.28
2023-05-06T01:00:34.630Z,993.28
2023-05-06T01:00:45.192Z,993.28
2023-05-06T01:00:55.713Z,993.27
2023-05-06T01:01:06.193Z,993.27
2023-05-06T01:01:16.700Z,993.27
2023-05-06T01:01:27.231Z,993.27
2023-05-06T01:01:37.861Z,993.27
2023-05-06T01:01:48.318Z,993.26
2023-05-06T01:01:58.795Z,993.26
2023-05-06T01:02:09.307Z,993.26
2023-05-06T01:02:19.790Z,993.25
2023-05-06T01:02:43.381Z,993.25
2023-05-06T01:02:47.454Z,993.25
2023-05-06T01:02:52.419Z,993.25
2023-05-06T01:03:02.162Z,993.25
2023-05-06T01:03:12.469Z,993.25
2023-05-06T01:03:23.014Z,993.25
2023-05-06T01:03:33.497Z,993.24
2023-05-06T01:03:43.995Z,993.24
2023-05-06T01:03:54.622Z,993.24
2023-05-06T01:04:05.055Z,993.24
2023-05-06T01:04:15.464Z,993.24
2023-05-06T01:04:26.002Z,993.24
2023-05-06T01:04:36.538Z,993.24
2023-05-06T01:04:47.041Z,993.23
2023-05-06T01:04:57.652Z,993.23
2023-05-06T01:05:08.279Z,993.23
2023-05-06T01:05:18.636Z,993.23
2023-05-06T01:05:29.074Z,993.23
2023-05-06T01:05:39.597Z,993.23
2023-05-06T01:05:50.111Z,993.23
2023-05-06T01:06:00.620Z,993.23
2023-05-06T01:06:11.147Z,993.23
2023-05-06T01:06:21.694Z,993.23
2023-05-06T01:06:32.155Z,993.23
2023-05-06T01:06:42.666Z,993.23
2023-05-06T01:06:53.187Z,993.23
2023-05-06T01:07:03.694Z,993.23
2023-05-06T01:07:14.216Z,993.23
2023-05-06T01:07:24.733Z,993.23
2023-05-06T01:07:35.252Z,993.23
2023-05-06T01:07:45.759Z,993.23
2023-05-06T01:07:56.277Z,993.22
2023-05-06T01:08:06.809Z,993.22
2023-05-06T01:08:17.304Z,993.22
2023-05-06T01:08:27.816Z,993.22
2023-05-06T01:08:38.335Z,993.22
2023-05-06T01:08:48.856Z,993.22
2023-05-06T01:08:59.369Z,993.21
2023-05-06T01:09:09.911Z,993.21
2023-05-06T01:09:20.391Z,993.21
2023-05-06T01:09:30.911Z,993.21
2023-05-06T01:09:41.424Z,993.22
2023-05-06T01:09:51.937Z,993.21
2023-05-06T01:10:02.462Z,993.21
2023-05-06T01:10:12.972Z,993.22
2023-05-06T01:10:23.491Z,993.22
2023-05-06T01:10:34.019Z,993.21
2023-05-06T01:10:44.522Z,993.22
2023-05-06T01:10:55.056Z,993.22
2023-05-06T01:11:05.552Z,993.22
2023-05-06T01:11:16.150Z,993.22
2023-05-06T01:11:26.585Z,993.22
2023-05-06T01:11:37.095Z,993.23
2023-05-06T01:11:47.606Z,993.23
2023-05-06T01:11:58.124Z,993.23
2023-05-06T01:12:08.647Z,993.23
2023-05-06T01:12:19.195Z,993.23
2023-05-06T01:12:29.728Z,993.23
2023-05-06T01:12:40.191Z,993.23
2023-05-06T01:12:50.736Z,993.23
2023-05-06T01:13:01.267Z,993.24
2023-05-06T01:13:11.780Z,993.24
2023-05-06T01:13:22.292Z,993.24
2023-05-06T01:13:32.778Z,993.24
2023-05-06T01:13:43.292Z,993.24
2023-05-06T01:13:53.821Z,993.24
2023-05-06T01:14:04.335Z,993.25
2023-05-06T01:14:14.895Z,993.25
2023-05-06T01:14:25.379Z,993.25
2023-05-06T01:14:35.943Z,993.25
2023-05-06T01:14:46.454Z,993.25
2023-05-06T01:14:56.895Z,993.26
2023-05-06T01:15:07.637Z,993.26
2023-05-06T01:15:17.929Z,993.26
2023-05-06T01:15:28.444Z,993.26
2023-05-06T01:15:38.964Z,993.26
2023-05-06T01:15:49.484Z,993.26
2023-05-06T01:15:59.988Z,993.26
2023-05-06T01:16:10.530Z,993.26
2023-05-06T01:16:21.030Z,993.26
2023-05-06T01:16:31.535Z,993.26
2023-05-06T01:16:42.187Z,993.26
2023-05-06T01:16:52.712Z,993.26
2023-05-06T01:17:03.174Z,993.26
2023-05-06T01:17:13.761Z,993.26
2023-05-06T01:17:24.161Z,993.26
2023-05-06T01:17:34.673Z,993.26
2023-05-06T01:17:45.198Z,993.26
2023-05-06T01:17:55.816Z,993.26
2023-05-06T01:18:06.240Z,993.26
2023-05-06T01:18:16.700Z,993.26
2023-05-06T01:18:27.210Z,993.26
2023-05-06T01:18:37.719Z,993.26
2023-05-06T01:18:48.251Z,993.26
2023-05-06T01:18:58.746Z,993.26
2023-05-06T01:19:09.358Z,993.26
2023-05-06T01:19:19.787Z,993.26
2023-05-06T01:19:30.292Z,993.26
2023-05-06T01:19:40.805Z,993.26
2023-05-06T01:19:51.324Z,993.26
2023-05-06T01:20:01.940Z,993.26
2023-05-06T01:20:12.379Z,993.26
2023-05-06T01:20:22.876Z,993.26
2023-05-06T01:20:33.394Z,993.26
2023-05-06T01:20:43.913Z,993.26
2023-05-06T01:20:54.424Z,993.26
2023-05-06T01:21:04.949Z,993.26
2023-05-06T01:21:15.771Z,993.26
2023-05-06T01:21:25.983Z,993.25
2023-05-06T01:21:36.501Z,993.25
2023-05-06T01:21:47.012Z,993.25
2023-05-06T01:21:57.554Z,993.25
2023-05-06T01:22:08.028Z,993.25
2023-05-06T01:22:18.550Z,993.25
2023-05-06T01:22:29.080Z,993.24
2023-05-06T01:22:39.648Z,993.24
2023-05-06T01:22:50.096Z,993.24
2023-05-06T01:23:00.618Z,993.25
2023-05-06T01:23:11.127Z,993.24
2023-05-06T01:23:21.647Z,993.24
2023-05-06T01:23:32.213Z,993.24
2023-05-06T01:23:42.668Z,993.24
2023-05-06T01:23:53.205Z,993.24
2023-05-06T01:24:03.708Z,993.24
2023-05-06T01:24:14.234Z,993.24
2023-05-06T01:24:24.737Z,993.23
2023-05-06T01:24:35.245Z,993.23
2023-05-06T01:24:45.767Z,993.23
2023-05-06T01:24:56.270Z,993.23
2023-05-06T01:25:06.908Z,993.22
2023-05-06T01:25:17.305Z,993.23
2023-05-06T01:25:27.819Z,993.22
2023-05-06T01:25:38.341Z,993.22
2023-05-06T01:25:48.848Z,993.22
2023-05-06T01:25:59.375Z,993.22
2023-05-06T01:26:09.887Z,993.22
2023-05-06T01:26:20.396Z,993.22
2023-05-06T01:26:30.910Z,993.21
2023-05-06T01:26:41.461Z,993.21
2023-05-06T01:26:51.940Z,993.21
2023-05-06T01:27:02.457Z,993.21
2023-05-06T01:27:12.966Z,993.21
2023-05-06T01:27:23.488Z,993.20
2023-05-06T01:27:34.248Z,993.20
2023-05-06T01:27:44.586Z,993.20
2023-05-06T01:27:55.037Z,993.20
2023-05-06T01:28:05.562Z,993.20
2023-05-06T01:28:16.070Z,993.20
2023-05-06T01:28:26.635Z,993.20
2023-05-06T01:28:37.106Z,993.20
2023-05-06T01:28:47.607Z,993.20
2023-05-06T01:28:58.125Z,993.20
2023-05-06T01:29:08.639Z,993.20
2023-05-06T01:29:19.278Z,993.19
2023-05-06T01:29:29.667Z,993.20
2023-05-06T01:29:40.187Z,993.20
2023-05-06T01:29:50.700Z,993.20
2023-05-06T01:30:01.222Z,993.20
2023-05-06T01:30:11.741Z,993.20
2023-05-06T01:30:22.249Z,993.20
2023-05-06T01:30:32.764Z,993.20
2023-05-06T01:30:43.326Z,993.20
2023-05-06T01:30:53.826Z,993.20
2023-05-06T01:31:04.335Z,993.20
2023-05-06T01:31:14.879Z,993.20
2023-05-06T01:31:25.387Z,993.21
2023-05-06T01:31:35.953Z,993.21
2023-05-06T01:31:46.372Z,993.21
2023-05-06T01:31:56.900Z,993.21
2023-05-06T01:32:07.400Z,993.21
2023-05-06T01:32:17.943Z,993.21
2023-05-06T01:32:28.488Z,993.22
2023-05-06T01:32:38.962Z,993.22
2023-05-06T01:32:49.593Z,993.22
2023-05-06T01:33:00.071Z,993.22
2023-05-06T01:33:10.492Z,993.22
2023-05-06T01:33:21.015Z,993.22
2023-05-06T01:33:31.517Z,993.22
2023-05-06T01:33:42.035Z,993.22
2023-05-06T01:33:52.549Z,993.22
2023-05-06T01:34:03.067Z,993.22
2023-05-06T01:34:13.600Z,993.22
2023-05-06T01:34:24.097Z,993.22
2023-05-06T01:34:34.615Z,993.22
2023-05-06T01:34:45.227Z,993.22
2023-05-06T01:34:55.651Z,993.22
2023-05-06T01:35:06.166Z,993.23
2023-05-06T01:35:16.684Z,993.23
2023-05-06T01:35:27.189Z,993.23
2023-05-06T01:35:37.705Z,993.23
2023-05-06T01:35:48.218Z,993.24
2023-05-06T01:35:58.740Z,993.23
2023-05-06T01:36:09.254Z,993.24
2023-05-06T01:36:19.786Z,993.24
2023-05-06T01:36:30.278Z,993.25
2023-05-06T01:36:40.813Z,993.25
2023-05-06T01:36:51.312Z,993.25
2023-05-06T01:37:01.823Z,993.26
2023-05-06T01:37:12.368Z,993.26
2023-05-06T01:37:22.876Z,993.26
2023-05-06T01:37:33.389Z,993.27
2023-05-06T01:37:43.894Z,993.27
2023-05-06T01:37:54.395Z,993.28
2023-05-06T01:38:04.930Z,993.28
2023-05-06T01:38:15.425Z,993.28
2023-05-06T01:38:25.940Z,993.28
2023-05-06T01:38:36.464Z,993.28
2023-05-06T01:38:46.970Z,993.29
2023-05-06T01:38:57.494Z,993.29
2023-05-06T01:39:08.019Z,993.29
2023-05-06T01:39:18.511Z,993.29
2023-05-06T01:39:29.026Z,993.29
2023-05-06T01:39:39.557Z,993.29
2023-05-06T01:39:50.058Z,993.29
2023-05-06T01:40:00.568Z,993.29
2023-05-06T01:40:11.096Z,993.30
2023-05-06T01:40:21.607Z,993.30
2023-05-06T01:40:32.120Z,993.30
2023-05-06T01:40:42.641Z,993.29
2023-05-06T01:40:53.146Z,993.30
2023-05-06T01:41:03.666Z,993.29
2023-05-06T01:41:14.170Z,993.30
2023-05-06T01:41:24.695Z,993.29
2023-05-06T01:41:35.255Z,993.29
2023-05-06T01:41:45.734Z,993.29
2023-05-06T01:41:56.241Z,993.29
2023-05-06T01:42:06.747Z,993.28
2023-05-06T01:42:17.265Z,993.28
2023-05-06T01:42:27.779Z,993.28
2023-05-06T01:42:38.291Z,993.28
2023-05-06T01:42:48.815Z,993.28
2023-05-06T01:42:59.326Z,993.28
2023-05-06T01:43:09.839Z,993.28
2023-05-06T01:43:20.350Z,993.28
2023-05-06T01:43:30.871Z,993.28
2023-05-06T01:43:41.373Z,993.28
2023-05-06T01:43:51.898Z,993.29
2023-05-06T01:44:02.412Z,993.29
2023-05-06T01:44:12.930Z,993.29
2023-05-06T01:44:23.460Z,993.29
2023-05-06T01:44:33.975Z,993.29
2023-05-06T01:44:44.479Z,993.29
2023-05-06T01:44:54.992Z,993.29
2023-05-06T01:45:05.513Z,993.29
2023-05-06T01:45:16.133Z,993.29
2023-05-06T01:45:26.543Z,993.29
2023-05-06T01:45:37.060Z,993.29
2023-05-06T01:45:47.576Z,993.29
2023-05-06T01:45:58.141Z,993.29
2023-05-06T01:46:08.689Z,993.29
2023-05-06T01:46:19.204Z,993.29
2023-05-06T01:46:29.690Z,993.29
2023-05-06T01:46:40.270Z,993.30
2023-05-06T01:46:50.678Z,993.29
2023-05-06T01:47:01.196Z,993.29
2023-05-06T01:47:11.989Z,993.29
2023-05-06T01:47:22.221Z,993.29
2023-05-06T01:47:32.754Z,993.29
2023-05-06T01:47:43.295Z,993.29
2023-05-06T01:47:53.775Z,993.29
2023-05-06T01:48:04.340Z,993.29
2023-05-06T01:48:14.907Z,993.29
2023-05-06T01:48:25.312Z,993.29
2023-05-06T01:48:35.838Z,993.29
2023-05-06T01:48:46.361Z,993.29
2023-05-06T01:48:56.859Z,993.29
2023-05-06T01:49:07.362Z,993.30
2023-05-06T01:49:17.988Z,993.29
2023-05-06T01:49:28.400Z,993.29
2023-05-06T01:49:38.915Z,993.30
2023-05-06T01:49:49.430Z,993.30
2023-05-06T01:49:59.943Z,993.30
2023-05-06T01:50:10.454Z,993.30
2023-05-06T01:50:20.970Z,993.30
2023-05-06T01:50:31.487Z,993.31
2023-05-06T01:50:41.999Z,993.31
2023-05-06T01:50:52.525Z,993.31
2023-05-06T01:51:03.030Z,993.32
2023-05-06T01:51:13.570Z,993.32
2023-05-06T01:51:24.103Z,993.32
2023-05-06T01:51:34.585Z,993.32
2023-05-06T01:51:45.091Z,993.33
2023-05-06T01:51:55.630Z,993.33
2023-05-06T01:52:06.127Z,993.34
2023-05-06T01:52:16.631Z,993.34
2023-05-06T01:52:27.169Z,993.35
2023-05-06T01:52:37.664Z,993.35
2023-05-06T01:52:48.181Z,993.35
2023-05-06T01:52:58.710Z,993.35
2023-05-06T01:53:09.210Z,993.36
2023-05-06T01:53:19.719Z,993.36
2023-05-06T01:53:30.241Z,993.37
2023-05-06T01:53:40.784Z,993.37
2023-05-06T01:53:51.274Z,993.38
2023-05-06T01:54:01.800Z,993.38
2023-05-06T01:54:12.303Z,993.38
2023-05-06T01:54:22.818Z,993.38
2023-05-06T01:54:33.332Z,993.38
2023-05-06T01:54:43.848Z,993.38
2023-05-06T01:54:54.369Z,993.39
2023-05-06T01:55:04.971Z,993.39
2023-05-06T01:55:15.435Z,993.39
2023-05-06T01:55:25.911Z,993.39
2023-05-06T01:55:36.425Z,993.39
2023-05-06T01:55:46.938Z,993.39
2023-05-06T01:55:57.456Z,993.39
2023-05-06T01:56:07.970Z,993.39
2023-05-06T01:56:18.500Z,993.39
2023-05-06T01:56:29.011Z,993.39
2023-05-06T01:56:39.513Z,993.39
2023-05-06T01:56:50.028Z,993.39
2023-05-06T01:57:00.552Z,993.39
2023-05-06T01:57:11.078Z,993.39
2023-05-06T01:57:21.588Z,993.39
2023-05-06T01:57:32.099Z,993.39
2023-05-06T01:57:42.620Z,993.39
2023-05-06T01:57:53.142Z,993.38
2023-05-06T01:58:03.667Z,993.38
2023-05-06T01:58:14.206Z,993.37
2023-05-06T01:58:24.687Z,993.37
2023-05-06T01:58:35.202Z,993.37
2023-05-06T01:58:45.761Z,993.37
2023-05-06T01:58:56.668Z,993.37
2023-05-06T01:59:06.760Z,993.37
2023-05-06T01:59:17.272Z,993.37
2023-05-06T01:59:29.537Z,993.36
2023-05-06T01:59:38.307Z,993.36
2023-05-06T01:59:48.822Z,993.37
2023-05-06T01:59:59.333Z,993.37
2023-05-06T02:00:09.865Z,993.37
2023-05-06T02:00:20.363Z,993.37
2023-05-06T02:00:30.890Z,993.38
2023-05-06T02:00:41.396Z,993.38
2023-05-06T02:00:51.911Z,993.38
2023-05-06T02:01:02.432Z,993.38
2023-05-06T02:01:12.964Z,993.38
2023-05-06T02:01:23.471Z,993.38
2023-05-06T02:01:34.011Z,993.38
2023-05-06T02:01:44.555Z,993.39
2023-05-06T02:01:55.028Z,993.39
2023-05-06T02:02:05.556Z,993.40
2023-05-06T02:02:16.044Z,993.40
2023-05-06T02:02:26.666Z,993.39
2023-05-06T02:02:37.117Z,993.40
2023-05-06T02:02:47.774Z,993.41
2023-05-06T02:02:58.223Z,993.41
2023-05-06T02:03:08.738Z,993.42
2023-05-06T02:03:19.307Z,993.41
2023-05-06T02:03:29.728Z,993.42
2023-05-06T02:03:40.229Z,993.42
2023-05-06T02:03:50.822Z,993.42
2023-05-06T02:04:01.386Z,993.42
2023-05-06T02:04:11.712Z,993.42
2023-05-06T02:04:22.250Z,993.42
2023-05-06T02:04:32.729Z,993.42
2023-05-06T02:04:43.248Z,993.42
2023-05-06T02:04:53.801Z,993.42
2023-05-06T02:05:04.275Z,993.42
2023-05-06T02:05:14.818Z,993.42
2023-05-06T02:05:25.312Z,993.41
2023-05-06T02:05:35.843Z,993.41
2023-05-06T02:05:46.340Z,993.41
2023-05-06T02:05:56.854Z,993.41
2023-05-06T02:06:07.362Z,993.41
2023-05-06T02:06:17.876Z,993.41
2023-05-06T02:06:28.399Z,993.41
2023-05-06T02:06:38.914Z,993.41
2023-05-06T02:06:49.425Z,993.41
2023-05-06T02:06:59.939Z,993.41
2023-05-06T02:07:10.471Z,993.41
2023-05-06T02:07:20.969Z,993.41
2023-05-06T02:07:31.487Z,993.41
2023-05-06T02:07:42.011Z,993.41
2023-05-06T02:07:52.520Z,993.42
2023-05-06T02:08:03.152Z,993.42
2023-05-06T02:08:13.543Z,993.41
2023-05-06T02:08:24.074Z,993.41
2023-05-06T02:08:34.578Z,993.41
2023-05-06T02:08:45.088Z,993.41
2023-05-06T02:08:55.611Z,993.41
2023-05-06T02:09:06.136Z,993.42
2023-05-06T02:09:16.648Z,993.41
2023-05-06T02:09:27.173Z,993.42
2023-05-06T02:09:37.692Z,993.42
2023-05-06T02:09:48.230Z,993.42
2023-05-06T02:09:58.729Z,993.42
2023-05-06T02:10:09.218Z,993.42
2023-05-06T02:10:19.749Z,993.42
2023-05-06T02:10:30.254Z,993.43
2023-05-06T02:10:40.772Z,993.42
2023-05-06T02:10:51.294Z,993.42
2023-05-06T02:11:01.808Z,993.42
2023-05-06T02:11:12.334Z,993.43